createdAt,value
2018-03-21T15:40:14.023Z,56.70
2018-03-21T15:42:40.736Z,53.40
2018-03-21T15:45:07.354Z,51.10
2018-03-21T15:47:33.920Z,48.60
2018-03-21T15:50:00.319Z,47.80
2018-03-21T15:52:26.797Z,47.70
2018-03-21T15:54:56.408Z,47.30
2018-03-21T15:57:24.744Z,46.60
2018-03-21T15:59:52.520Z,45.70
2018-03-21T16:02:19.171Z,46.30
2018-03-21T16:04:45.484Z,46.10
2018-03-21T16:07:13.048Z,44.90
2018-03-21T16:09:39.675Z,44.90
2018-03-21T16:12:06.528Z,43.60
2018-03-21T16:14:33.742Z,43.70
2018-03-21T16:17:01.045Z,44.10
2018-03-21T16:19:27.534Z,44.20
2018-03-21T16:21:54.475Z,44.50
2018-03-21T16:24:21.906Z,44.50
2018-03-21T16:26:49.451Z,44.40
2018-03-21T16:29:17.887Z,44.90
2018-03-21T16:34:19.037Z,46.40
2018-03-21T16:36:45.563Z,46.10
2018-03-21T16:39:12.008Z,45.70
2018-03-21T16:41:38.628Z,45.70
2018-03-21T16:44:06.140Z,46.00
2018-03-21T16:46:33.600Z,46.70
2018-03-21T16:49:00.116Z,46.80
2018-03-21T16:56:50.169Z,48.40
2018-03-21T16:59:16.809Z,49.40
2018-03-21T17:01:43.178Z,49.40
2018-03-21T17:04:09.452Z,50.60
2018-03-21T17:06:35.692Z,52.00
2018-03-21T17:09:02.002Z,54.60
2018-03-21T17:14:00.167Z,57.80
2018-03-21T17:16:26.538Z,59.20
2018-03-21T17:18:52.839Z,59.20
2018-03-21T17:21:19.149Z,59.40
2018-03-21T17:23:45.414Z,60.80
2018-03-21T17:26:12.156Z,62.70
2018-03-21T17:28:38.470Z,62.70
2018-03-21T17:31:04.720Z,64.30
2018-03-21T17:36:02.733Z,65.40
2018-03-21T17:38:29.097Z,66.50
2018-03-21T17:40:55.356Z,67.00
2018-03-21T17:43:21.611Z,66.40
2018-03-21T17:45:50.796Z,67.00
2018-03-21T17:48:17.167Z,68.20
2018-03-21T17:53:15.395Z,69.70
2018-03-21T17:55:42.995Z,69.70
2018-03-21T18:00:40.878Z,69.80
2018-03-21T18:05:39.170Z,70.50
2018-03-21T18:08:06.164Z,71.60
2018-03-21T18:10:33.418Z,71.60
2018-03-21T18:13:02.341Z,72.30
2018-03-21T18:15:30.171Z,72.50
2018-03-21T18:17:58.665Z,72.70
2018-03-21T18:20:38.502Z,72.50
2018-03-21T18:23:09.814Z,72.80
2018-03-21T18:25:38.247Z,73.20
2018-03-21T18:28:06.762Z,73.20
2018-03-21T18:30:37.609Z,73.30
2018-03-21T18:33:07.355Z,73.90
2018-03-21T18:35:35.363Z,74.10
2018-03-21T18:38:09.013Z,74.30
2018-03-21T18:40:41.286Z,74.90
2018-03-21T18:43:09.209Z,75.10
2018-03-21T18:45:38.412Z,75.50
2018-03-21T18:48:08.814Z,75.50
2018-03-21T18:50:37.087Z,76.10
2018-03-21T18:53:04.977Z,75.80
2018-03-21T18:58:06.690Z,76.00
2018-03-21T19:00:35.252Z,76.80
2018-03-21T19:03:03.253Z,76.80
2018-03-21T19:05:30.994Z,77.00
2018-03-21T19:07:58.810Z,77.30
2018-03-21T19:16:03.447Z,77.50
2018-03-21T19:18:31.136Z,78.00
2018-03-21T19:20:58.842Z,78.00
2018-03-21T19:23:39.511Z,77.60
2018-03-21T19:26:07.543Z,77.80
2018-03-21T19:28:35.303Z,77.90
2018-03-21T19:31:03.146Z,78.30
2018-03-21T19:33:30.893Z,78.20
2018-03-21T19:35:58.672Z,78.00
2018-03-21T19:38:26.431Z,77.90
2018-03-21T19:40:54.194Z,77.30
2018-03-21T19:43:23.277Z,77.00
2018-03-21T19:45:51.513Z,77.40
2018-03-21T19:48:19.667Z,78.40
2018-03-21T19:50:47.563Z,78.40
2018-03-21T19:53:15.295Z,79.20
2018-03-21T19:55:43.056Z,79.00
2018-03-21T19:58:11.089Z,79.20
2018-03-21T20:00:39.323Z,79.80
2018-03-21T20:03:07.434Z,79.70
2018-03-21T20:05:41.983Z,79.50
2018-03-21T20:08:09.743Z,79.50
2018-03-21T20:10:38.400Z,79.80
2018-03-21T20:13:06.270Z,79.90
2018-03-21T20:15:34.438Z,79.60
2018-03-21T20:18:03.330Z,79.90
2018-03-21T20:20:31.302Z,79.70
2018-03-21T20:22:59.478Z,80.00
2018-03-21T20:25:27.211Z,80.00
2018-03-21T20:27:55.608Z,79.30
2018-03-21T20:30:23.829Z,79.30
2018-03-21T20:32:51.538Z,79.20
2018-03-21T20:35:19.710Z,80.00
2018-03-21T20:37:47.541Z,79.90
2018-03-21T20:40:15.541Z,79.90
2018-03-21T20:42:43.316Z,79.90
2018-03-21T20:45:11.486Z,80.70
2018-03-21T20:47:39.323Z,80.70
2018-03-21T20:50:07.144Z,80.80
2018-03-21T20:52:34.985Z,80.90
2018-03-21T20:55:02.855Z,80.60
2018-03-21T20:57:31.266Z,80.70
2018-03-21T20:59:59.076Z,80.60
2018-03-21T21:02:27.905Z,80.80
2018-03-21T21:04:55.764Z,80.70
2018-03-21T21:07:24.136Z,80.90
2018-03-21T21:09:51.983Z,80.90
2018-03-21T21:12:19.662Z,81.00
2018-03-21T21:14:47.437Z,80.80
2018-03-21T21:17:15.372Z,80.80
2018-03-21T21:19:43.115Z,81.30
2018-03-21T21:22:10.980Z,81.30
2018-03-21T21:24:38.726Z,81.40
2018-03-21T21:27:07.195Z,81.20
2018-03-21T21:29:35.231Z,81.50
2018-03-21T21:32:03.391Z,81.80
2018-03-21T21:34:32.046Z,81.80
2018-03-21T21:37:00.546Z,81.40
2018-03-21T21:39:28.403Z,81.60
2018-03-21T21:41:56.183Z,81.80
2018-03-21T21:44:23.979Z,81.80
2018-03-21T21:46:51.749Z,81.70
2018-03-21T21:49:19.507Z,81.80
2018-03-21T21:51:47.278Z,81.90
2018-03-21T21:54:19.071Z,81.80
2018-03-21T21:56:47.894Z,82.00
2018-03-21T21:59:15.708Z,82.00
2018-03-21T22:01:43.958Z,82.00
2018-03-21T22:04:11.915Z,82.00
2018-03-21T22:06:39.757Z,82.40
2018-03-21T22:09:07.535Z,82.00
2018-03-21T22:11:35.412Z,82.20
2018-03-21T22:14:05.982Z,82.80
2018-03-21T22:16:33.943Z,82.60
2018-03-21T22:19:01.738Z,82.50
2018-03-21T22:21:30.521Z,82.60
2018-03-21T22:23:58.360Z,82.70
2018-03-21T22:26:26.541Z,82.60
2018-03-21T22:28:54.353Z,82.60
2018-03-21T22:31:22.118Z,82.70
2018-03-21T22:33:49.880Z,82.70
2018-03-21T22:36:17.613Z,82.60
2018-03-21T22:38:45.765Z,82.70
2018-03-21T22:41:13.647Z,82.70
2018-03-21T22:43:41.816Z,83.00
2018-03-21T22:46:09.984Z,83.00
2018-03-21T22:48:38.169Z,83.20
2018-03-21T22:51:05.962Z,83.20
2018-03-21T22:53:33.742Z,83.10
2018-03-21T22:56:01.528Z,83.40
2018-03-21T22:58:29.270Z,83.60
2018-03-21T23:00:57.121Z,83.60
2018-03-21T23:03:24.907Z,83.80
2018-03-21T23:05:52.821Z,83.60
2018-03-21T23:08:20.586Z,83.50
2018-03-21T23:10:48.439Z,83.60
2018-03-21T23:13:16.300Z,83.70
2018-03-21T23:15:44.023Z,83.60
2018-03-21T23:18:11.825Z,83.50
2018-03-21T23:20:39.582Z,83.40
2018-03-21T23:23:07.375Z,83.80
2018-03-21T23:25:35.543Z,83.70
2018-03-21T23:28:03.298Z,83.70
2018-03-21T23:30:31.084Z,83.80
2018-03-21T23:32:59.242Z,83.70
2018-03-21T23:35:26.963Z,83.70
2018-03-21T23:37:54.799Z,84.20
2018-03-21T23:40:22.567Z,83.80
2018-03-21T23:42:50.283Z,83.60
2018-03-21T23:45:18.081Z,83.70
2018-03-21T23:47:45.867Z,83.80
2018-03-21T23:50:13.618Z,83.60
2018-03-21T23:52:41.771Z,83.80
2018-03-21T23:55:09.520Z,83.70
2018-03-21T23:57:37.290Z,83.80
